Time;durP1;ratioP1;P1;durP2;ratioP2;P2;SDS_P1;SDS_P2;PMS_P1;PMS_P2;Temp;Humidity;BMP_temperature;BMP_pressure;BME280_temperature;BME280_humidity;BME280_pressure;Samples;Min_cycle;Max_cycle;Signal;HPM_P1;HPM_P2
2023/04/28 00:01:32;;;;;;;8.30;3.33;;;11.40;99.90;;;;;;5035783;28;20096;-80
2023/04/28 00:03:59;;;;;;;10.00;3.47;;;11.40;99.90;;;;;;5036147;28;20130;-80
2023/04/28 00:06:26;;;;;;;6.40;2.97;;;11.50;99.90;;;;;;5036957;28;20096;-80
2023/04/28 00:08:52;;;;;;;7.38;3.13;;;11.50;99.90;;;;;;5034727;28;20038;-80
2023/04/28 00:11:19;;;;;;;7.60;3.28;;;11.50;99.90;;;;;;5036612;28;20041;-80
2023/04/28 00:13:46;;;;;;;5.53;2.28;;;11.50;99.90;;;;;;5035519;28;20045;-80
2023/04/28 00:16:12;;;;;;;5.75;2.20;;;11.60;99.90;;;;;;5035856;28;20125;-81
2023/04/28 00:18:39;;;;;;;5.85;2.20;;;11.60;99.90;;;;;;5035548;28;20412;-80
2023/04/28 00:21:06;;;;;;;5.28;2.20;;;11.60;99.90;;;;;;5034703;28;20463;-80
2023/04/28 00:23:32;;;;;;;5.70;2.15;;;11.70;99.90;;;;;;5035696;28;20041;-80
2023/04/28 00:25:59;;;;;;;6.32;2.10;;;11.70;99.90;;;;;;5019211;28;20554;-80
2023/04/28 00:28:26;;;;;;;6.53;2.45;;;11.80;99.90;;;;;;5035397;28;20111;-80
2023/04/28 00:31:00;;;;;;;5.38;2.20;;;11.70;99.90;;;;;;5035386;28;20080;-80
2023/04/28 00:33:27;;;;;;;5.40;2.22;;;11.80;99.90;;;;;;5034065;28;20041;-81
2023/04/28 00:35:53;;;;;;;6.05;2.30;;;11.80;99.90;;;;;;5018986;28;20407;-80
2023/04/28 00:38:20;;;;;;;4.45;1.65;;;11.90;99.90;;;;;;5034998;28;20041;-80
2023/04/28 00:40:47;;;;;;;4.53;1.70;;;11.90;99.90;;;;;;5035149;28;20046;-80
2023/04/28 00:43:13;;;;;;;5.75;1.90;;;11.90;99.90;;;;;;5035928;28;20443;-80
2023/04/28 00:45:40;;;;;;;5.22;1.85;;;11.90;99.90;;;;;;5035923;28;20120;-80
2023/04/28 00:48:07;;;;;;;3.78;1.52;;;11.90;99.90;;;;;;5034272;28;20360;-80
2023/04/28 00:50:34;;;;;;;4.53;1.60;;;11.90;99.90;;;;;;5035179;28;20483;-80
2023/04/28 00:53:00;;;;;;;3.88;1.50;;;11.90;99.90;;;;;;5034851;28;20045;-80
2023/04/28 00:55:27;;;;;;;4.03;1.42;;;11.90;99.90;;;;;;5034672;28;20128;-80
2023/04/28 00:57:54;;;;;;;3.67;1.58;;;11.90;99.90;;;;;;5035581;28;20043;-80
2023/04/28 01:00:20;;;;;;;4.18;1.55;;;11.90;99.90;;;;;;5034697;28;20631;-80
2023/04/28 01:02:47;;;;;;;4.60;1.52;;;11.90;99.90;;;;;;5018654;28;20037;-80
2023/04/28 01:05:14;;;;;;;3.92;1.40;;;11.90;99.90;;;;;;5018593;28;20045;-80
2023/04/28 01:07:41;;;;;;;3.85;1.50;;;11.90;99.90;;;;;;5033459;28;20042;-80
2023/04/28 01:10:08;;;;;;;5.10;1.63;;;11.90;99.90;;;;;;5034800;28;20073;-80
2023/04/28 01:12:35;;;;;;;5.78;1.83;;;12.00;99.90;;;;;;5018282;28;20042;-79
2023/04/28 01:15:02;;;;;;;5.43;2.05;;;12.00;99.90;;;;;;5033585;28;20039;-80
2023/04/28 01:17:30;;;;;;;4.18;1.77;;;12.00;99.90;;;;;;5018408;28;20046;-80
2023/04/28 01:19:57;;;;;;;4.82;2.00;;;12.00;99.90;;;;;;5034609;28;20042;-80
2023/04/28 01:22:24;;;;;;;4.32;1.77;;;12.10;99.90;;;;;;5033212;28;20428;-80
2023/04/28 01:24:51;;;;;;;5.10;1.90;;;12.10;99.90;;;;;;5034383;28;20053;-80
2023/04/28 01:27:17;;;;;;;5.78;2.30;;;12.10;99.90;;;;;;5034268;28;20042;-80
2023/04/28 01:29:44;;;;;;;6.18;2.30;;;12.10;99.90;;;;;;5035306;28;20124;-80
2023/04/28 01:32:11;;;;;;;5.80;2.40;;;12.10;99.90;;;;;;5034148;28;20042;-80
2023/04/28 01:34:38;;;;;;;5.93;2.30;;;12.10;99.90;;;;;;5016536;28;20060;-80
2023/04/28 01:37:05;;;;;;;5.55;2.15;;;12.10;99.90;;;;;;5017783;28;20483;-80
2023/04/28 01:39:32;;;;;;;5.97;2.55;;;12.10;99.90;;;;;;5017765;28;20069;-80
2023/04/28 01:41:58;;;;;;;6.20;2.47;;;12.20;99.90;;;;;;5016658;28;20042;-81
2023/04/28 01:44:25;;;;;;;5.05;2.33;;;12.20;99.90;;;;;;5033846;28;20476;-81
2023/04/28 01:46:52;;;;;;;7.38;2.60;;;12.20;99.90;;;;;;5016479;28;20042;-81
2023/04/28 01:49:20;;;;;;;6.70;2.90;;;12.20;99.90;;;;;;5034049;28;20427;-80
2023/04/28 01:51:47;;;;;;;5.78;2.50;;;12.20;99.90;;;;;;5034225;28;20052;-80
2023/04/28 01:54:13;;;;;;;6.03;2.67;;;12.20;99.90;;;;;;5032998;28;20045;-81
2023/04/28 01:56:41;;;;;;;7.05;2.92;;;12.30;99.90;;;;;;5033879;28;20037;-80
2023/04/28 01:59:11;;;;;;;6.07;2.80;;;12.30;99.90;;;;;;5033603;28;20045;-81
2023/04/28 02:01:37;;;;;;;6.22;2.78;;;12.30;99.90;;;;;;5032710;28;20052;-80
2023/04/28 02:04:04;;;;;;;6.70;2.92;;;12.30;99.90;;;;;;5033884;28;20107;-81
2023/04/28 02:06:34;;;;;;;7.40;3.28;;;12.30;99.90;;;;;;5034161;28;20059;-81
2023/04/28 02:09:00;;;;;;;7.72;3.13;;;12.30;99.90;;;;;;5016225;28;20383;-81
2023/04/28 02:11:27;;;;;;;6.57;3.20;;;12.30;99.90;;;;;;5034725;28;20446;-80
2023/04/28 02:13:55;;;;;;;6.13;2.83;;;12.30;99.90;;;;;;5032669;28;20049;-80
2023/04/28 02:16:22;;;;;;;7.22;3.35;;;12.30;99.90;;;;;;5033617;28;20045;-80
2023/04/28 02:18:49;;;;;;;6.90;3.00;;;12.30;99.90;;;;;;5033467;28;20041;-81
2023/04/28 02:21:16;;;;;;;7.45;3.50;;;12.30;99.90;;;;;;5032102;28;20037;-81
2023/04/28 02:23:43;;;;;;;7.93;3.45;;;12.30;99.90;;;;;;5033447;28;20103;-80
2023/04/28 02:26:10;;;;;;;7.82;3.45;;;12.30;99.90;;;;;;5016809;28;20468;-80
2023/04/28 02:28:37;;;;;;;7.88;3.67;;;12.30;99.90;;;;;;5033374;28;20042;-80
2023/04/28 02:31:04;;;;;;;7.38;3.40;;;12.30;99.90;;;;;;5034366;28;20057;-80
2023/04/28 02:33:31;;;;;;;9.45;3.88;;;12.30;99.90;;;;;;5032251;28;20045;-80
2023/04/28 02:35:57;;;;;;;7.63;3.40;;;12.30;99.90;;;;;;5033406;28;20041;-80
2023/04/28 02:38:24;;;;;;;10.13;4.15;;;12.30;99.90;;;;;;5034337;28;20045;-80
2023/04/28 02:40:51;;;;;;;8.65;3.85;;;12.30;99.90;;;;;;5019917;28;20037;-80
2023/04/28 02:43:18;;;;;;;8.82;3.90;;;12.30;99.90;;;;;;5037144;28;20136;-80
2023/04/28 02:45:45;;;;;;;9.20;4.00;;;12.30;99.90;;;;;;5038116;28;20053;-81
2023/04/28 02:48:11;;;;;;;9.30;4.22;;;12.30;99.90;;;;;;5019766;28;20533;-80
2023/04/28 02:50:38;;;;;;;8.27;3.80;;;12.40;99.90;;;;;;5037294;28;20049;-81
2023/04/28 02:53:05;;;;;;;9.32;4.30;;;12.40;99.90;;;;;;5037237;28;20041;-80
2023/04/28 02:55:32;;;;;;;7.57;3.60;;;12.40;99.90;;;;;;5036019;28;20452;-80
2023/04/28 02:57:58;;;;;;;10.35;4.22;;;12.40;99.90;;;;;;5036900;28;20091;-80
2023/04/28 03:00:25;;;;;;;10.30;4.50;;;12.40;99.90;;;;;;5036135;28;20080;-81
2023/04/28 03:02:52;;;;;;;9.30;4.20;;;12.40;99.90;;;;;;5037071;28;20518;-80
2023/04/28 03:05:19;;;;;;;10.13;4.85;;;12.40;99.90;;;;;;5020698;28;20133;-80
2023/04/28 03:07:45;;;;;;;9.73;4.82;;;12.40;99.90;;;;;;5035779;28;20053;-80
2023/04/28 03:10:12;;;;;;;10.50;4.43;;;12.40;99.90;;;;;;5020503;28;20460;-81
2023/04/28 03:12:39;;;;;;;11.50;5.43;;;12.40;99.90;;;;;;5020622;28;20046;-80
2023/04/28 03:15:07;;;;;;;9.10;4.30;;;12.40;99.90;;;;;;5036508;28;20436;-80
2023/04/28 03:17:37;;;;;;;8.88;4.10;;;12.40;99.90;;;;;;5036785;28;20048;-81
2023/04/28 03:20:04;;;;;;;12.57;4.13;;;12.40;99.90;;;;;;5035607;28;20072;-80
2023/04/28 03:22:31;;;;;;;10.88;4.30;;;12.40;99.90;;;;;;5036750;28;20044;-80
2023/04/28 03:24:58;;;;;;;8.75;4.15;;;12.40;99.90;;;;;;5036594;28;20139;-80
2023/04/28 03:27:26;;;;;;;8.70;4.07;;;12.40;99.90;;;;;;5035519;28;20095;-81
2023/04/28 03:29:54;;;;;;;9.80;3.70;;;12.40;99.90;;;;;;5036900;28;20053;-80
2023/04/28 03:32:20;;;;;;;9.27;3.67;;;12.40;99.90;;;;;;5036472;28;20357;-81
2023/04/28 03:34:47;;;;;;;8.85;3.67;;;12.40;99.90;;;;;;5018913;28;20042;-80
2023/04/28 03:37:14;;;;;;;10.27;4.10;;;12.40;99.90;;;;;;5037359;28;20120;-81
2023/04/28 03:39:40;;;;;;;9.55;4.05;;;12.40;99.90;;;;;;5020148;28;20046;-81
2023/04/28 03:42:07;;;;;;;9.20;4.00;;;12.40;99.90;;;;;;5018806;28;20042;-81
2023/04/28 03:45:00;;;;;;;9.73;4.00;;;12.40;99.90;;;;;;5033216;28;20471;-81
2023/04/28 03:47:27;;;;;;;10.32;4.10;;;12.30;99.90;;;;;;5035219;28;20061;-80
2023/04/28 03:49:54;;;;;;;10.05;3.90;;;12.40;99.90;;;;;;5019061;28;20041;-80
2023/04/28 03:52:21;;;;;;;8.57;3.95;;;12.30;99.90;;;;;;5035950;28;20053;-81
2023/04/28 03:54:47;;;;;;;9.98;3.85;;;12.30;99.90;;;;;;5018562;28;20456;-80
2023/04/28 03:57:14;;;;;;;7.57;3.50;;;12.30;99.90;;;;;;5035878;28;20115;-81
2023/04/28 03:59:41;;;;;;;7.60;3.55;;;12.20;99.90;;;;;;5036089;28;20041;-81
2023/04/28 04:02:09;;;;;;;9.85;3.80;;;12.30;99.90;;;;;;5034951;28;20096;-80
2023/04/28 04:04:36;;;;;;;8.65;3.80;;;12.20;99.90;;;;;;5035780;28;20041;-80
2023/04/28 04:07:03;;;;;;;9.60;4.18;;;12.20;99.90;;;;;;5018528;28;20660;-80
2023/04/28 04:09:30;;;;;;;9.40;3.50;;;12.20;99.90;;;;;;5035814;28;20045;-80
2023/04/28 04:11:59;;;;;;;7.55;3.38;;;12.20;99.90;;;;;;5019631;28;20446;-80
2023/04/28 04:14:26;;;;;;;7.28;2.67;;;12.20;99.90;;;;;;5034538;28;20053;-79
2023/04/28 04:16:54;;;;;;;6.88;2.70;;;12.20;99.90;;;;;;5035421;28;20045;-79
2023/04/28 04:19:22;;;;;;;6.70;2.10;;;12.10;99.90;;;;;;5034727;28;20095;-80
2023/04/28 04:21:52;;;;;;;6.03;2.10;;;12.10;99.90;;;;;;5035410;28;20041;-80
2023/04/28 04:24:19;;;;;;;5.88;2.22;;;12.10;99.90;;;;;;5036634;28;20125;-80
2023/04/28 04:26:46;;;;;;;8.63;1.90;;;12.10;99.90;;;;;;5034490;28;20053;-80
2023/04/28 04:29:25;;;;;;;5.00;1.80;;;12.00;99.90;;;;;;5035314;28;20069;-80
2023/04/28 04:31:52;;;;;;;4.40;1.70;;;12.00;99.90;;;;;;5035344;28;20055;-80
2023/04/28 04:34:20;;;;;;;3.60;1.42;;;12.00;99.90;;;;;;5034455;28;20053;-80
2023/04/28 04:36:47;;;;;;;3.55;1.40;;;12.00;99.90;;;;;;5035012;28;20060;-80
2023/04/28 04:39:13;;;;;;;4.50;1.70;;;12.00;99.90;;;;;;5035005;28;20042;-80
2023/04/28 04:41:41;;;;;;;5.78;2.10;;;12.00;99.90;;;;;;5017735;28;20484;-81
2023/04/28 04:44:26;;;;;;;4.18;1.60;;;12.00;99.90;;;;;;5034794;28;20049;-80
2023/04/28 04:46:53;;;;;;;4.10;1.55;;;12.00;99.90;;;;;;5035050;28;20041;-80
2023/04/28 04:49:20;;;;;;;4.10;1.60;;;12.00;99.90;;;;;;5035124;28;20045;-81
2023/04/28 04:51:47;;;;;;;4.28;1.50;;;12.00;99.90;;;;;;5034890;28;20077;-81
2023/04/28 04:54:13;;;;;;;4.78;1.50;;;12.00;99.90;;;;;;5033755;28;20080;-81
2023/04/28 04:56:41;;;;;;;2.97;1.40;;;12.00;99.90;;;;;;5018771;28;20056;-81
2023/04/28 04:59:10;;;;;;;3.78;1.30;;;12.00;99.90;;;;;;5034658;28;20037;-81
2023/04/28 05:01:54;;;;;;;3.25;1.30;;;12.00;99.90;;;;;;5033319;28;20059;-81
2023/04/28 05:04:20;;;;;;;3.33;1.20;;;12.00;99.90;;;;;;5034864;28;20071;-79
2023/04/28 05:06:48;;;;;;;3.05;1.30;;;12.00;99.90;;;;;;5017453;28;20049;-81
2023/04/28 05:09:15;;;;;;;3.15;1.20;;;12.00;99.90;;;;;;5018292;28;20045;-81
2023/04/28 05:11:42;;;;;;;4.10;1.30;;;12.10;99.90;;;;;;5035830;28;20041;-81
2023/04/28 05:14:10;;;;;;;2.35;1.10;;;12.00;99.90;;;;;;5034409;28;20133;-80
2023/04/28 05:16:39;;;;;;;2.58;1.10;;;12.10;99.90;;;;;;5018912;28;20368;-80
2023/04/28 05:19:14;;;;;;;4.30;1.10;;;12.10;99.90;;;;;;5034652;28;20408;-80
2023/04/28 05:21:40;;;;;;;2.92;1.20;;;12.10;99.90;;;;;;5033077;28;20060;-80
2023/04/28 05:24:10;;;;;;;3.92;1.20;;;12.10;99.90;;;;;;5018387;28;20107;-80
2023/04/28 05:26:37;;;;;;;2.78;1.10;;;12.10;99.90;;;;;;5035260;28;20530;-80
2023/04/28 05:29:07;;;;;;;2.22;1.10;;;12.10;99.90;;;;;;5018392;28;20047;-80
2023/04/28 05:31:34;;;;;;;3.97;1.23;;;12.10;99.90;;;;;;5017839;28;20140;-80
2023/04/28 05:34:01;;;;;;;2.72;1.20;;;12.10;99.90;;;;;;5016805;28;20048;-80
2023/04/28 05:36:28;;;;;;;2.13;1.00;;;12.10;99.90;;;;;;5034810;28;20045;-80
2023/04/28 05:38:55;;;;;;;2.75;1.10;;;12.20;99.90;;;;;;5034021;28;20037;-80
2023/04/28 05:41:22;;;;;;;3.70;1.23;;;12.20;99.90;;;;;;5032873;28;20494;-80
2023/04/28 05:43:50;;;;;;;4.65;1.27;;;12.20;99.90;;;;;;5033732;28;20056;-80
2023/04/28 05:46:18;;;;;;;4.45;1.20;;;12.20;99.90;;;;;;5017908;28;20049;-80
2023/04/28 05:48:57;;;;;;;3.47;1.20;;;12.30;99.90;;;;;;5033204;28;20037;-80
2023/04/28 05:51:26;;;;;;;2.75;1.20;;;12.30;99.90;;;;;;5017726;28;20047;-79
2023/04/28 05:53:52;;;;;;;3.13;1.33;;;12.40;99.90;;;;;;5033234;28;20049;-79
2023/04/28 05:56:19;;;;;;;4.72;1.08;;;12.40;99.90;;;;;;5033970;28;20048;-79
2023/04/28 05:58:49;;;;;;;4.63;1.70;;;12.40;99.90;;;;;;5033862;28;20055;-80
2023/04/28 06:01:16;;;;;;;2.20;1.00;;;12.40;99.90;;;;;;5032782;28;20095;-80
2023/04/28 06:03:43;;;;;;;2.65;1.10;;;12.40;99.90;;;;;;5034117;28;20034;-80
2023/04/28 06:06:10;;;;;;;2.10;1.02;;;12.50;99.90;;;;;;5034009;28;20411;-80
2023/04/28 06:08:37;;;;;;;4.43;1.20;;;12.50;99.90;;;;;;5033563;28;20045;-80
2023/04/28 06:11:04;;;;;;;2.13;1.00;;;12.60;99.90;;;;;;5033773;28;20106;-80
2023/04/28 06:13:31;;;;;;;2.47;1.00;;;12.60;99.90;;;;;;5032148;28;20045;-79
2023/04/28 06:15:58;;;;;;;2.97;1.00;;;12.60;99.90;;;;;;5033507;28;20065;-79
2023/04/28 06:18:25;;;;;;;1.50;0.90;;;12.60;99.90;;;;;;5017241;28;20156;-80
2023/04/28 06:20:52;;;;;;;4.28;1.15;;;12.70;99.90;;;;;;5033223;28;20052;-80
2023/04/28 06:23:19;;;;;;;2.40;1.05;;;12.70;99.90;;;;;;5016923;28;20041;-80
2023/04/28 06:25:47;;;;;;;2.50;1.00;;;12.80;99.90;;;;;;5033532;28;20049;-80
2023/04/28 06:28:14;;;;;;;2.00;1.00;;;13.10;99.90;;;;;;5033358;28;20494;-80
2023/04/28 06:30:40;;;;;;;2.03;0.90;;;13.20;99.90;;;;;;5033559;28;20467;-80
2023/04/28 06:33:08;;;;;;;2.58;1.00;;;13.30;99.90;;;;;;5033284;28;20037;-80
2023/04/28 06:35:37;;;;;;;4.10;1.00;;;13.40;99.90;;;;;;5033323;28;20049;-80
2023/04/28 06:38:03;;;;;;;1.23;0.80;;;13.40;99.90;;;;;;5034333;28;20041;-80
2023/04/28 06:40:30;;;;;;;3.78;1.10;;;13.30;99.90;;;;;;5016189;28;20041;-80
2023/04/28 06:42:59;;;;;;;2.55;1.00;;;13.40;99.90;;;;;;5033117;28;20099;-80
2023/04/28 06:45:34;;;;;;;2.40;0.90;;;13.40;99.90;;;;;;5034188;28;20538;-78
2023/04/28 06:48:01;;;;;;;1.67;0.90;;;13.40;99.90;;;;;;5032172;28;20472;-80
2023/04/28 06:50:27;;;;;;;0.88;0.75;;;13.40;99.90;;;;;;5034460;28;20037;-80
2023/04/28 06:52:54;;;;;;;2.33;0.90;;;13.40;99.90;;;;;;5034214;28;20125;-80
2023/04/28 06:55:21;;;;;;;0.80;0.73;;;13.40;99.90;;;;;;5032292;28;20091;-80
2023/04/28 06:57:48;;;;;;;0.93;0.75;;;13.60;99.90;;;;;;5033186;28;20460;-80
2023/04/28 07:00:15;;;;;;;1.40;0.90;;;13.70;99.90;;;;;;5015848;28;20040;-80
2023/04/28 07:02:42;;;;;;;3.97;1.00;;;13.80;99.90;;;;;;5033200;28;20597;-80
2023/04/28 07:05:09;;;;;;;2.10;1.00;;;13.70;99.90;;;;;;5034173;28;20216;-79
2023/04/28 07:07:39;;;;;;;1.70;0.82;;;13.70;99.90;;;;;;5032188;28;20037;-82
2023/04/28 07:10:06;;;;;;;1.92;1.00;;;13.70;99.90;;;;;;5016626;28;20053;-79
2023/04/28 07:12:32;;;;;;;1.27;0.85;;;13.60;99.90;;;;;;5033658;28;20460;-80
2023/04/28 07:14:59;;;;;;;2.50;0.90;;;13.60;99.90;;;;;;5032960;28;20045;-80
2023/04/28 07:17:26;;;;;;;1.92;0.90;;;13.50;99.90;;;;;;5032981;28;20049;-79
2023/04/28 07:19:53;;;;;;;2.35;1.00;;;13.60;99.90;;;;;;5034118;28;20041;-80
2023/04/28 07:22:19;;;;;;;2.03;1.00;;;13.60;99.90;;;;;;5015713;28;20045;-79
2023/04/28 07:24:46;;;;;;;2.38;1.00;;;13.60;99.90;;;;;;5034574;28;20496;-80
2023/04/28 07:27:13;;;;;;;1.80;0.98;;;13.50;99.90;;;;;;5036377;28;20041;-80
2023/04/28 07:29:39;;;;;;;3.22;1.10;;;13.60;99.90;;;;;;5037396;28;20050;-80
2023/04/28 07:32:09;;;;;;;2.67;1.17;;;13.70;99.90;;;;;;5035174;28;20345;-80
2023/04/28 07:34:36;;;;;;;2.15;0.93;;;13.80;99.90;;;;;;5024208;28;20132;-80
2023/04/28 07:37:03;;;;;;;3.10;1.08;;;13.90;99.90;;;;;;5037475;28;20055;-80
2023/04/28 07:39:30;;;;;;;8.05;1.20;;;14.00;99.90;;;;;;5005061;28;20509;-80
2023/04/28 07:41:57;;;;;;;2.50;1.17;;;13.90;99.90;;;;;;5016523;28;20045;-80
2023/04/28 07:44:24;;;;;;;3.78;1.20;;;13.70;99.90;;;;;;5017160;28;20049;-80
2023/04/28 07:46:51;;;;;;;2.03;1.00;;;13.70;99.90;;;;;;5016164;28;20042;-80
2023/04/28 07:49:18;;;;;;;3.10;1.10;;;13.90;99.90;;;;;;5016142;28;20116;-80
2023/04/28 07:51:46;;;;;;;1.65;1.00;;;14.00;99.90;;;;;;5032554;28;20041;-79
2023/04/28 07:54:12;;;;;;;1.38;0.82;;;14.10;99.90;;;;;;5034626;28;20041;-82
2023/04/28 07:56:39;;;;;;;2.40;1.00;;;14.20;99.90;;;;;;5019563;28;20080;-80
2023/04/28 07:59:05;;;;;;;2.25;0.93;;;14.30;99.90;;;;;;5036577;28;20037;-80
2023/04/28 08:01:32;;;;;;;2.13;1.08;;;14.30;99.90;;;;;;5035053;28;20056;-82
2023/04/28 08:03:59;;;;;;;2.92;1.15;;;14.30;99.90;;;;;;5035669;28;20042;-82
2023/04/28 08:06:26;;;;;;;2.83;1.20;;;14.30;99.90;;;;;;5019652;28;20037;-80
2023/04/28 08:08:53;;;;;;;3.03;0.95;;;14.20;99.90;;;;;;5035524;28;20460;-81
2023/04/28 08:11:20;;;;;;;2.33;1.00;;;14.10;99.90;;;;;;5035715;28;20048;-85
2023/04/28 08:13:47;;;;;;;1.60;0.90;;;14.10;99.90;;;;;;5032621;28;20052;-82
2023/04/28 08:16:13;;;;;;;2.22;0.90;;;14.20;99.90;;;;;;5034470;28;20049;-81
2023/04/28 08:18:40;;;;;;;1.17;0.82;;;14.30;99.90;;;;;;5034220;28;20476;-80
2023/04/28 08:21:07;;;;;;;1.80;0.90;;;14.60;99.90;;;;;;5033368;28;20053;-81
2023/04/28 08:23:33;;;;;;;1.80;1.00;;;14.70;99.90;;;;;;5033572;28;20045;-83
2023/04/28 08:26:00;;;;;;;2.92;0.95;;;14.60;99.90;;;;;;5034343;28;20045;-81
2023/04/28 08:28:27;;;;;;;1.45;0.88;;;14.70;99.90;;;;;;5035511;28;20057;-83
2023/04/28 08:30:54;;;;;;;1.35;0.80;;;14.80;99.90;;;;;;5014330;28;20046;-83
2023/04/28 08:33:22;;;;;;;1.65;0.82;;;14.80;99.90;;;;;;4997073;28;20141;-84
2023/04/28 08:35:49;;;;;;;1.88;0.88;;;14.90;99.90;;;;;;5013294;28;20089;-84
2023/04/28 08:38:17;;;;;;;1.35;0.75;;;15.20;99.90;;;;;;4998128;28;20061;-84
2023/04/28 08:40:44;;;;;;;1.25;0.73;;;15.20;99.90;;;;;;5014592;28;20042;-81
2023/04/28 08:43:11;;;;;;;1.95;0.90;;;15.30;99.90;;;;;;4996787;28;20476;-82
2023/04/28 08:45:37;;;;;;;1.50;0.80;;;15.50;99.90;;;;;;5014396;28;20057;-84
2023/04/28 08:48:04;;;;;;;1.10;0.90;;;15.60;99.90;;;;;;5012883;28;20108;-83
2023/04/28 08:50:31;;;;;;;1.98;0.93;;;15.70;99.90;;;;;;4995387;28;20046;-85
2023/04/28 08:52:59;;;;;;;1.38;0.70;;;15.80;99.90;;;;;;4998221;28;20061;-82
2023/04/28 08:55:26;;;;;;;2.00;0.90;;;16.00;99.90;;;;;;5029554;28;20440;-80
2023/04/28 08:57:53;;;;;;;0.88;0.80;;;15.90;99.90;;;;;;5008883;28;20052;-82
2023/04/28 09:00:20;;;;;;;0.80;0.80;;;15.90;99.90;;;;;;4995492;28;20161;-82
2023/04/28 09:02:47;;;;;;;1.33;0.80;;;16.00;99.90;;;;;;5013038;28;20046;-82
2023/04/28 09:05:14;;;;;;;2.65;1.00;;;16.00;99.90;;;;;;5029262;28;20046;-81
2023/04/28 09:07:41;;;;;;;1.20;0.80;;;16.10;99.90;;;;;;5015280;28;20115;-84
2023/04/28 09:10:08;;;;;;;0.93;0.70;;;16.30;99.90;;;;;;5033161;28;20468;-83
2023/04/28 09:12:34;;;;;;;0.93;0.77;;;16.50;99.90;;;;;;5031494;28;20048;-81
2023/04/28 09:15:08;;;;;;;0.60;0.60;;;16.50;99.90;;;;;;5031835;28;20049;-82
2023/04/28 09:17:34;;;;;;;1.17;0.70;;;16.60;99.90;;;;;;5032565;28;20068;-84
2023/04/28 09:20:03;;;;;;;1.35;0.80;;;16.90;99.90;;;;;;5031686;28;20033;-83
2023/04/28 09:22:29;;;;;;;1.95;0.70;;;17.10;99.90;;;;;;5032254;28;20053;-83
2023/04/28 09:24:56;;;;;;;2.50;0.80;;;17.20;99.90;;;;;;5031838;28;20075;-82
2023/04/28 09:27:23;;;;;;;1.80;0.80;;;17.30;99.90;;;;;;5030292;28;20050;-81
2023/04/28 09:29:50;;;;;;;0.85;0.70;;;17.60;99.90;;;;;;5000686;28;20044;-82
2023/04/28 09:32:16;;;;;;;0.80;0.80;;;17.70;99.90;;;;;;5014968;28;20046;-83
2023/04/28 09:34:44;;;;;;;1.73;0.70;;;17.60;99.90;;;;;;5018789;28;20056;-82
2023/04/28 09:37:12;;;;;;;1.48;0.80;;;17.50;99.90;;;;;;5028948;28;20053;-83
2023/04/28 09:39:38;;;;;;;1.10;0.77;;;17.60;99.90;;;;;;5024065;28;20037;-83
2023/04/28 09:42:05;;;;;;;1.27;0.80;;;17.40;99.90;;;;;;5031467;28;20124;-84
2023/04/28 09:44:32;;;;;;;0.68;0.60;;;17.20;99.90;;;;;;5031231;28;20053;-82
2023/04/28 09:47:00;;;;;;;2.45;0.88;;;17.00;99.90;;;;;;5030842;28;20476;-82
2023/04/28 09:49:26;;;;;;;7.82;0.80;;;16.70;99.90;;;;;;5031562;28;20052;-84
2023/04/28 09:51:53;;;;;;;0.90;0.70;;;16.60;99.90;;;;;;5031368;28;20045;-82
2023/04/28 09:54:20;;;;;;;1.08;0.80;;;16.50;99.90;;;;;;5014420;28;20064;-83
2023/04/28 09:56:46;;;;;;;1.75;0.90;;;16.30;99.90;;;;;;5015024;28;20383;-83
2023/04/28 09:59:13;;;;;;;3.55;0.90;;;16.00;99.90;;;;;;5033631;28;20464;-82
2023/04/28 10:01:40;;;;;;;1.08;0.80;;;15.80;99.90;;;;;;5011335;28;20469;-81
2023/04/28 10:04:07;;;;;;;2.25;0.90;;;15.70;99.90;;;;;;5013214;28;20104;-81
2023/04/28 10:06:35;;;;;;;2.35;0.80;;;15.50;99.90;;;;;;5012715;28;20042;-81
2023/04/28 10:09:02;;;;;;;1.45;0.90;;;15.50;99.90;;;;;;5011903;28;20448;-81
2023/04/28 10:11:29;;;;;;;1.70;0.82;;;15.40;99.90;;;;;;5011304;28;20104;-81
2023/04/28 10:13:56;;;;;;;1.75;0.90;;;15.50;99.90;;;;;;5010309;28;20040;-82
2023/04/28 10:16:23;;;;;;;1.30;0.70;;;15.90;99.90;;;;;;5011733;28;20381;-81
2023/04/28 10:18:50;;;;;;;0.63;0.60;;;16.40;99.90;;;;;;5012095;28;20057;-83
2023/04/28 10:21:16;;;;;;;1.27;0.73;;;16.90;99.90;;;;;;5011369;28;20461;-82
2023/04/28 10:23:44;;;;;;;1.85;0.70;;;17.40;99.90;;;;;;5012994;28;20050;-81
2023/04/28 10:26:11;;;;;;;2.80;0.80;;;17.50;99.90;;;;;;5013173;28;20096;-81
2023/04/28 10:28:38;;;;;;;7.63;0.90;;;17.00;99.90;;;;;;5019208;28;20141;-81
2023/04/28 10:31:05;;;;;;;2.28;0.70;;;16.80;99.90;;;;;;5028347;28;20056;-81
2023/04/28 10:33:32;;;;;;;2.55;1.00;;;16.50;99.90;;;;;;5003988;28;20046;-81
2023/04/28 10:35:58;;;;;;;1.20;0.75;;;16.50;99.90;;;;;;5011740;28;20070;-82
2023/04/28 10:38:25;;;;;;;1.80;0.80;;;16.90;99.90;;;;;;5011622;28;20061;-82
2023/04/28 10:40:52;;;;;;;4.07;0.80;;;17.40;99.90;;;;;;5010754;28;20046;-81
2023/04/28 10:43:19;;;;;;;1.60;0.90;;;17.80;99.90;;;;;;5018321;28;20064;-81
2023/04/28 10:45:46;;;;;;;1.70;1.08;;;17.70;99.90;;;;;;5031293;28;20045;-81
2023/04/28 10:48:13;;;;;;;1.33;0.77;;;17.80;99.90;;;;;;5030598;28;20049;-82
2023/04/28 10:50:40;;;;;;;1.98;0.70;;;17.90;99.90;;;;;;5015035;28;20103;-81
2023/04/28 10:53:07;;;;;;;0.85;0.60;;;18.10;99.90;;;;;;5013868;28;20230;-82
2023/04/28 10:55:38;;;;;;;1.05;0.75;;;18.10;99.90;;;;;;5029850;28;20049;-80
2023/04/28 10:58:05;;;;;;;3.33;0.70;;;17.80;99.90;;;;;;5030955;28;20037;-81
2023/04/28 11:00:32;;;;;;;1.30;0.80;;;17.70;99.90;;;;;;5033068;28;20037;-81
2023/04/28 11:02:58;;;;;;;1.17;0.80;;;17.50;99.90;;;;;;5034077;28;20048;-81
2023/04/28 11:05:26;;;;;;;2.28;0.85;;;17.10;99.90;;;;;;5034539;28;20033;-81
2023/04/28 11:07:52;;;;;;;2.30;1.00;;;16.90;99.90;;;;;;5035975;28;20042;-82
2023/04/28 11:10:19;;;;;;;3.95;1.20;;;16.80;99.90;;;;;;5027846;28;20490;-83
2023/04/28 11:12:46;;;;;;;3.00;1.20;;;16.50;99.90;;;;;;5018207;28;20050;-80
2023/04/28 11:15:12;;;;;;;2.50;1.10;;;16.30;99.90;;;;;;5015522;28;20054;-81
2023/04/28 11:17:39;;;;;;;3.33;1.40;;;16.40;99.90;;;;;;5016721;28;20468;-81
2023/04/28 11:20:07;;;;;;;3.35;1.30;;;16.50;99.90;;;;;;5014118;28;20045;-81
2023/04/28 11:22:34;;;;;;;3.38;1.30;;;16.70;99.90;;;;;;5018354;28;20465;-81
2023/04/28 11:25:01;;;;;;;3.53;1.45;;;17.30;99.90;;;;;;5037299;28;20373;-80
2023/04/28 11:27:30;;;;;;;3.97;1.40;;;17.50;99.90;;;;;;5036172;28;20120;-81
2023/04/28 11:29:57;;;;;;;3.97;1.20;;;17.30;99.90;;;;;;5037388;28;20037;-82
2023/04/28 11:32:23;;;;;;;2.63;1.08;;;17.00;99.90;;;;;;5036081;28;20049;-81
2023/04/28 11:34:50;;;;;;;2.10;1.10;;;16.90;99.90;;;;;;5035171;28;20083;-81
2023/04/28 11:40:04;;;;;;;3.80;1.60;;;16.80;99.90;;;;;;5035652;28;20045;-81
2023/04/28 11:42:32;;;;;;;3.22;1.30;;;17.00;99.90;;;;;;5034310;28;20048;-83
2023/04/28 11:44:59;;;;;;;2.25;1.10;;;17.50;99.90;;;;;;5034761;28;20092;-82
2023/04/28 11:47:26;;;;;;;3.35;1.10;;;17.70;99.90;;;;;;5035174;28;20053;-81
2023/04/28 11:49:52;;;;;;;2.97;1.30;;;18.00;99.90;;;;;;5036904;28;20042;-81
2023/04/28 11:52:20;;;;;;;3.08;1.20;;;18.50;99.90;;;;;;5036926;28;20037;-81
2023/04/28 11:54:46;;;;;;;3.80;1.70;;;18.50;99.90;;;;;;5035313;28;20041;-81
2023/04/28 11:57:13;;;;;;;2.30;1.10;;;18.40;99.90;;;;;;5036344;28;20041;-81
2023/04/28 11:59:40;;;;;;;3.38;1.52;;;18.00;99.90;;;;;;5037017;28;20033;-81
2023/04/28 12:02:08;;;;;;;4.25;1.80;;;17.60;99.90;;;;;;5035824;28;20048;-81
2023/04/28 12:04:35;;;;;;;5.32;2.40;;;17.30;99.90;;;;;;5035904;28;20053;-81
2023/04/28 12:07:02;;;;;;;4.57;1.80;;;17.20;99.90;;;;;;5035026;28;20291;-81
2023/04/28 12:09:28;;;;;;;4.00;1.60;;;17.10;99.90;;;;;;5035837;28;20041;-80
2023/04/28 12:11:56;;;;;;;5.82;2.88;;;16.80;99.90;;;;;;5035661;28;20053;-80
2023/04/28 12:14:23;;;;;;;6.65;3.25;;;16.80;99.90;;;;;;5035397;28;20376;-81
2023/04/28 12:16:49;;;;;;;7.03;2.83;;;16.80;99.90;;;;;;5035708;28;20041;-81
2023/04/28 12:19:16;;;;;;;6.07;2.95;;;17.10;99.90;;;;;;5035711;28;20376;-81
2023/04/28 12:21:43;;;;;;;5.43;2.00;;;17.50;99.90;;;;;;5035688;28;20456;-81
2023/04/28 12:24:09;;;;;;;4.97;2.00;;;17.80;99.90;;;;;;5032192;28;20068;-81
2023/04/28 12:26:36;;;;;;;4.35;1.55;;;18.20;99.90;;;;;;5029675;28;20479;-80
2023/04/28 12:29:03;;;;;;;4.38;1.70;;;18.30;99.90;;;;;;5034527;28;20141;-80
2023/04/28 12:31:29;;;;;;;3.83;1.52;;;18.30;99.90;;;;;;5027114;28;20469;-80
2023/04/28 12:33:56;;;;;;;5.80;1.90;;;18.20;99.90;;;;;;5034107;28;20132;-80
2023/04/28 12:36:23;;;;;;;6.00;3.13;;;18.30;99.90;;;;;;5029296;28;20042;-80
2023/04/28 12:38:50;;;;;;;5.65;2.10;;;18.30;99.90;;;;;;5035849;28;20038;-80
2023/04/28 12:41:18;;;;;;;3.67;1.50;;;18.30;99.90;;;;;;5034752;28;20079;-80
2023/04/28 12:43:44;;;;;;;5.18;1.98;;;18.30;99.90;;;;;;5034682;28;20064;-80
2023/04/28 12:46:13;;;;;;;5.40;1.90;;;18.00;99.90;;;;;;5035850;28;20033;-80
2023/04/28 12:48:40;;;;;;;4.63;1.98;;;18.00;99.90;;;;;;5034873;28;20049;-80